sensor_id;sensor_type;location;lat;lon;timestamp;P1;P2;P0
12246;PMS7003;6186;52.022;4.692;2023-03-22T00:01:26;2.00;2.00;0.00
12246;PMS7003;6186;52.022;4.692;2023-03-22T00:03:55;1.80;1.80;0.00
12246;PMS7003;6186;52.022;4.692;2023-03-22T00:06:20;3.00;2.60;0.40
12246;PMS7003;6186;52.022;4.692;2023-03-22T00:08:49;2.00;2.00;0.40
12246;PMS7003;6186;52.022;4.692;2023-03-22T00:11:16;3.20;3.00;0.00
12246;PMS7003;6186;52.022;4.692;2023-03-22T00:13:42;2.00;2.00;0.60
12246;PMS7003;6186;52.022;4.692;2023-03-22T00:16:10;2.40;2.00;0.00
12246;PMS7003;6186;52.022;4.692;2023-03-22T00:18:36;2.75;2.75;0.50
12246;PMS7003;6186;52.022;4.692;2023-03-22T00:21:02;2.00;2.00;0.25
12246;PMS7003;6186;52.022;4.692;2023-03-22T00:23:27;2.00;2.00;0.25
12246;PMS7003;6186;52.022;4.692;2023-03-22T00:25:53;3.00;2.00;0.50
12246;PMS7003;6186;52.022;4.692;2023-03-22T00:28:19;2.00;2.00;0.40
12246;PMS7003;6186;52.022;4.692;2023-03-22T00:30:55;2.00;2.00;0.75
12246;PMS7003;6186;52.022;4.692;2023-03-22T00:33:22;4.00;3.00;1.00
12246;PMS7003;6186;52.022;4.692;2023-03-22T00:35:49;2.25;2.00;1.00
12246;PMS7003;6186;52.022;4.692;2023-03-22T00:38:18;3.80;3.00;1.00
12246;PMS7003;6186;52.022;4.692;2023-03-22T00:40:43;4.00;3.00;1.00
12246;PMS7003;6186;52.022;4.692;2023-03-22T00:43:09;4.00;2.60;1.00
12246;PMS7003;6186;52.022;4.692;2023-03-22T00:45:35;3.75;3.00;1.00
12246;PMS7003;6186;52.022;4.692;2023-03-22T00:48:02;3.60;3.00;1.00
12246;PMS7003;6186;52.022;4.692;2023-03-22T00:50:27;4.00;4.00;1.00
12246;PMS7003;6186;52.022;4.692;2023-03-22T00:52:52;2.75;2.75;1.00
12246;PMS7003;6186;52.022;4.692;2023-03-22T00:55:18;3.00;3.00;1.00
12246;PMS7003;6186;52.022;4.692;2023-03-22T00:57:43;3.00;2.25;1.00
12246;PMS7003;6186;52.022;4.692;2023-03-22T01:00:09;3.00;3.00;1.00
12246;PMS7003;6186;52.022;4.692;2023-03-22T01:02:37;3.00;3.00;0.60
12246;PMS7003;6186;52.022;4.692;2023-03-22T01:05:02;1.75;1.75;0.25
12246;PMS7003;6186;52.022;4.692;2023-03-22T01:07:30;3.60;3.00;1.00
12246;PMS7003;6186;52.022;4.692;2023-03-22T01:09:57;2.40;2.20;1.00
12246;PMS7003;6186;52.022;4.692;2023-03-22T01:12:22;2.00;2.00;0.75
12246;PMS7003;6186;52.022;4.692;2023-03-22T01:14:47;3.00;3.00;1.00
12246;PMS7003;6186;52.022;4.692;2023-03-22T01:17:13;4.00;3.00;1.00
12246;PMS7003;6186;52.022;4.692;2023-03-22T01:19:38;2.00;2.00;0.00
12246;PMS7003;6186;52.022;4.692;2023-03-22T01:22:04;2.00;2.00;0.00
12246;PMS7003;6186;52.022;4.692;2023-03-22T01:24:30;3.00;2.20;1.00
12246;PMS7003;6186;52.022;4.692;2023-03-22T01:26:56;2.40;2.40;1.00
12246;PMS7003;6186;52.022;4.692;2023-03-22T01:29:22;3.20;2.80;1.00
12246;PMS7003;6186;52.022;4.692;2023-03-22T01:31:48;3.40;3.00;1.00
12246;PMS7003;6186;52.022;4.692;2023-03-22T01:34:14;3.00;3.00;1.00
12246;PMS7003;6186;52.022;4.692;2023-03-22T01:36:39;5.25;4.00;1.00
12246;PMS7003;6186;52.022;4.692;2023-03-22T01:39:05;4.00;3.00;1.00
12246;PMS7003;6186;52.022;4.692;2023-03-22T01:41:30;3.00;3.00;1.00
12246;PMS7003;6186;52.022;4.692;2023-03-22T01:44:32;3.00;3.00;1.00
12246;PMS7003;6186;52.022;4.692;2023-03-22T01:46:53;5.00;4.00;1.80
12246;PMS7003;6186;52.022;4.692;2023-03-22T01:49:22;5.00;4.00;2.00
12246;PMS7003;6186;52.022;4.692;2023-03-22T01:51:52;3.40;3.00;1.00
12246;PMS7003;6186;52.022;4.692;2023-03-22T01:54:28;3.80;3.00;1.00
12246;PMS7003;6186;52.022;4.692;2023-03-22T01:57:16;4.00;4.00;1.00
12246;PMS7003;6186;52.022;4.692;2023-03-22T01:59:42;3.00;3.00;1.00
12246;PMS7003;6186;52.022;4.692;2023-03-22T02:02:08;3.00;3.00;1.00
12246;PMS7003;6186;52.022;4.692;2023-03-22T02:04:35;4.00;4.00;1.00
12246;PMS7003;6186;52.022;4.692;2023-03-22T02:07:07;4.40;3.40;1.00
12246;PMS7003;6186;52.022;4.692;2023-03-22T02:09:39;3.00;2.80;1.00
12246;PMS7003;6186;52.022;4.692;2023-03-22T02:14:55;2.60;2.60;0.80
12246;PMS7003;6186;52.022;4.692;2023-03-22T02:46:23;9.60;6.20;2.20
12246;PMS7003;6186;52.022;4.692;2023-03-22T02:48:39;9.40;7.20;3.00
12246;PMS7003;6186;52.022;4.692;2023-03-22T02:51:16;9.00;8.00;3.00
12246;PMS7003;6186;52.022;4.692;2023-03-22T02:53:49;8.00;7.00;3.00
12246;PMS7003;6186;52.022;4.692;2023-03-22T02:56:23;9.20;8.40;3.80
12246;PMS7003;6186;52.022;4.692;2023-03-22T02:58:54;8.40;7.60;3.80
12246;PMS7003;6186;52.022;4.692;2023-03-22T03:01:28;8.00;7.80;4.00
12246;PMS7003;6186;52.022;4.692;2023-03-22T03:04:00;9.00;9.00;3.00
12246;PMS7003;6186;52.022;4.692;2023-03-22T03:06:29;8.40;8.00;4.00
12246;PMS7003;6186;52.022;4.692;2023-03-22T03:08:57;9.00;8.20;3.60
12246;PMS7003;6186;52.022;4.692;2023-03-22T03:11:26;8.00;7.60;3.00
12246;PMS7003;6186;52.022;4.692;2023-03-22T03:13:52;9.00;8.50;3.00
12246;PMS7003;6186;52.022;4.692;2023-03-22T03:16:19;8.50;7.50;3.00
12246;PMS7003;6186;52.022;4.692;2023-03-22T03:18:53;7.00;6.80;2.20
12246;PMS7003;6186;52.022;4.692;2023-03-22T03:29:43;8.25;7.25;3.50
12246;PMS7003;6186;52.022;4.692;2023-03-22T03:35:00;8.00;8.00;3.40
12246;PMS7003;6186;52.022;4.692;2023-03-22T03:37:36;7.20;7.20;4.00
12246;PMS7003;6186;52.022;4.692;2023-03-22T03:40:09;10.60;8.40;4.00
12246;PMS7003;6186;52.022;4.692;2023-03-22T03:42:42;10.60;9.60;5.20
12246;PMS7003;6186;52.022;4.692;2023-03-22T03:45:13;9.60;9.00;4.00
12246;PMS7003;6186;52.022;4.692;2023-03-22T03:47:41;10.00;9.00;5.20
12246;PMS7003;6186;52.022;4.692;2023-03-22T03:50:08;11.20;9.20;4.40
12246;PMS7003;6186;52.022;4.692;2023-03-22T03:52:36;9.60;9.40;4.00
12246;PMS7003;6186;52.022;4.692;2023-03-22T03:55:02;9.50;8.00;4.00
12246;PMS7003;6186;52.022;4.692;2023-03-22T03:57:28;9.60;8.40;4.00
12246;PMS7003;6186;52.022;4.692;2023-03-22T03:59:53;9.00;8.00;4.00
12246;PMS7003;6186;52.022;4.692;2023-03-22T04:02:19;8.75;8.25;4.00
12246;PMS7003;6186;52.022;4.692;2023-03-22T04:04:44;10.25;9.00;4.00
12246;PMS7003;6186;52.022;4.692;2023-03-22T04:07:10;7.25;7.00;4.00
12246;PMS7003;6186;52.022;4.692;2023-03-22T04:09:37;8.50;8.50;4.25
12246;PMS7003;6186;52.022;4.692;2023-03-22T04:12:03;9.00;8.00;4.00
12246;PMS7003;6186;52.022;4.692;2023-03-22T04:14:28;8.50;8.00;4.00
12246;PMS7003;6186;52.022;4.692;2023-03-22T04:16:54;9.75;8.75;4.00
12246;PMS7003;6186;52.022;4.692;2023-03-22T04:19:20;9.00;8.25;4.00
12246;PMS7003;6186;52.022;4.692;2023-03-22T04:21:46;9.80;9.20;4.00
12246;PMS7003;6186;52.022;4.692;2023-03-22T04:24:12;11.80;10.20;5.40
12246;PMS7003;6186;52.022;4.692;2023-03-22T04:26:38;13.00;11.40;5.40
12246;PMS7003;6186;52.022;4.692;2023-03-22T04:29:04;8.20;7.00;3.80
12246;PMS7003;6186;52.022;4.692;2023-03-22T04:31:30;8.40;7.60;3.60
12246;PMS7003;6186;52.022;4.692;2023-03-22T04:33:57;8.60;8.60;4.00
12246;PMS7003;6186;52.022;4.692;2023-03-22T04:36:29;11.40;9.80;5.00
12246;PMS7003;6186;52.022;4.692;2023-03-22T04:38:59;8.80;8.00;4.00
12246;PMS7003;6186;52.022;4.692;2023-03-22T04:41:25;13.00;9.00;4.00
12246;PMS7003;6186;52.022;4.692;2023-03-22T04:43:50;11.00;10.00;5.25
12246;PMS7003;6186;52.022;4.692;2023-03-22T04:46:16;10.50;9.00;4.00
12246;PMS7003;6186;52.022;4.692;2023-03-22T04:48:41;8.80;8.20;3.60
12246;PMS7003;6186;52.022;4.692;2023-03-22T04:51:08;9.80;9.00;4.00
12246;PMS7003;6186;52.022;4.692;2023-03-22T04:53:35;10.00;8.80;3.80
12246;PMS7003;6186;52.022;4.692;2023-03-22T04:56:03;8.60;7.80;3.00
12246;PMS7003;6186;52.022;4.692;2023-03-22T04:58:34;7.60;7.20;3.00
12246;PMS7003;6186;52.022;4.692;2023-03-22T05:01:04;9.80;8.00;3.80
12246;PMS7003;6186;52.022;4.692;2023-03-22T05:03:29;9.00;8.60;3.20
12246;PMS7003;6186;52.022;4.692;2023-03-22T05:05:56;9.50;7.25;3.25
12246;PMS7003;6186;52.022;4.692;2023-03-22T05:08:23;8.00;7.60;3.40
12246;PMS7003;6186;52.022;4.692;2023-03-22T05:10:50;10.20;8.00;3.00
12246;PMS7003;6186;52.022;4.692;2023-03-22T05:13:17;8.40;7.00;3.00
12246;PMS7003;6186;52.022;4.692;2023-03-22T05:15:43;8.00;7.00;3.00
12246;PMS7003;6186;52.022;4.692;2023-03-22T05:18:09;7.00;7.00;3.00
12246;PMS7003;6186;52.022;4.692;2023-03-22T05:20:35;9.00;9.00;3.75
12246;PMS7003;6186;52.022;4.692;2023-03-22T05:23:00;8.00;6.50;3.00
12246;PMS7003;6186;52.022;4.692;2023-03-22T05:25:29;7.00;5.40;2.00
12246;PMS7003;6186;52.022;4.692;2023-03-22T05:27:54;8.00;7.00;3.00
12246;PMS7003;6186;52.022;4.692;2023-03-22T05:30:20;8.00;7.75;3.00
12246;PMS7003;6186;52.022;4.692;2023-03-22T05:32:45;5.00;5.00;2.25
12246;PMS7003;6186;52.022;4.692;2023-03-22T05:35:11;6.00;5.00;2.20
12246;PMS7003;6186;52.022;4.692;2023-03-22T05:37:38;6.00;4.00;2.00
12246;PMS7003;6186;52.022;4.692;2023-03-22T05:40:03;5.25;4.00;1.75
12246;PMS7003;6186;52.022;4.692;2023-03-22T05:42:29;4.40;4.00;1.60
12246;PMS7003;6186;52.022;4.692;2023-03-22T05:44:55;4.00;4.00;1.20
12246;PMS7003;6186;52.022;4.692;2023-03-22T05:47:20;4.00;3.50;1.25
12246;PMS7003;6186;52.022;4.692;2023-03-22T05:49:46;3.50;3.25;1.00
12246;PMS7003;6186;52.022;4.692;2023-03-22T05:52:11;4.00;4.00;1.00
12246;PMS7003;6186;52.022;4.692;2023-03-22T05:54:37;4.00;3.50;2.00
12246;PMS7003;6186;52.022;4.692;2023-03-22T05:57:02;4.50;4.00;2.00
12246;PMS7003;6186;52.022;4.692;2023-03-22T05:59:27;3.25;3.00;1.00
12246;PMS7003;6186;52.022;4.692;2023-03-22T06:01:53;4.00;4.00;1.75
12246;PMS7003;6186;52.022;4.692;2023-03-22T06:04:18;4.50;3.00;1.00
12246;PMS7003;6186;52.022;4.692;2023-03-22T06:06:44;2.80;2.80;1.00
12246;PMS7003;6186;52.022;4.692;2023-03-22T06:09:10;3.00;3.00;1.00
12246;PMS7003;6186;52.022;4.692;2023-03-22T06:11:36;4.00;3.00;1.00
12246;PMS7003;6186;52.022;4.692;2023-03-22T06:14:01;3.75;3.00;0.75
12246;PMS7003;6186;52.022;4.692;2023-03-22T06:16:26;3.00;3.00;1.00
12246;PMS7003;6186;52.022;4.692;2023-03-22T06:18:52;3.25;2.75;1.00
12246;PMS7003;6186;52.022;4.692;2023-03-22T06:21:17;6.50;3.00;0.75
12246;PMS7003;6186;52.022;4.692;2023-03-22T06:23:43;3.75;3.00;1.00
12246;PMS7003;6186;52.022;4.692;2023-03-22T06:26:08;3.00;3.00;1.00
12246;PMS7003;6186;52.022;4.692;2023-03-22T06:28:35;3.00;2.60;0.60
12246;PMS7003;6186;52.022;4.692;2023-03-22T06:31:05;3.00;3.00;1.00
12246;PMS7003;6186;52.022;4.692;2023-03-22T06:33:34;3.00;2.80;1.00
12246;PMS7003;6186;52.022;4.692;2023-03-22T06:36:01;3.00;2.80;0.00
12246;PMS7003;6186;52.022;4.692;2023-03-22T06:38:27;2.40;2.00;0.20
12246;PMS7003;6186;52.022;4.692;2023-03-22T06:40:53;3.60;3.40;1.00
12246;PMS7003;6186;52.022;4.692;2023-03-22T06:43:19;2.75;2.75;0.00
12246;PMS7003;6186;52.022;4.692;2023-03-22T06:45:45;3.00;2.75;0.50
12246;PMS7003;6186;52.022;4.692;2023-03-22T06:48:11;3.40;3.00;1.00
12246;PMS7003;6186;52.022;4.692;2023-03-22T06:50:36;2.75;2.75;1.00
12246;PMS7003;6186;52.022;4.692;2023-03-22T06:53:03;3.00;3.00;1.00
12246;PMS7003;6186;52.022;4.692;2023-03-22T06:55:29;2.00;2.00;1.00
12246;PMS7003;6186;52.022;4.692;2023-03-22T06:57:58;3.00;3.00;1.00
12246;PMS7003;6186;52.022;4.692;2023-03-22T07:00:27;3.00;3.00;1.00
12246;PMS7003;6186;52.022;4.692;2023-03-22T07:02:53;2.60;2.00;0.00
12246;PMS7003;6186;52.022;4.692;2023-03-22T07:05:18;2.50;2.50;1.00
12246;PMS7003;6186;52.022;4.692;2023-03-22T07:07:44;4.20;2.80;0.60
12246;PMS7003;6186;52.022;4.692;2023-03-22T07:10:10;2.60;2.00;1.00
12246;PMS7003;6186;52.022;4.692;2023-03-22T07:12:36;2.00;2.00;0.40
12246;PMS7003;6186;52.022;4.692;2023-03-22T07:15:02;2.75;2.25;1.00
12246;PMS7003;6186;52.022;4.692;2023-03-22T07:17:27;3.00;2.80;1.00
12246;PMS7003;6186;52.022;4.692;2023-03-22T07:19:53;2.00;2.00;0.00
12246;PMS7003;6186;52.022;4.692;2023-03-22T07:22:18;3.75;3.00;1.00
12246;PMS7003;6186;52.022;4.692;2023-03-22T07:24:49;3.00;2.00;0.00
12246;PMS7003;6186;52.022;4.692;2023-03-22T07:27:16;2.40;2.00;0.80
12246;PMS7003;6186;52.022;4.692;2023-03-22T07:29:41;2.00;2.00;0.60
12246;PMS7003;6186;52.022;4.692;2023-03-22T07:32:07;2.25;2.00;0.00
12246;PMS7003;6186;52.022;4.692;2023-03-22T07:34:33;3.00;3.00;1.00
12246;PMS7003;6186;52.022;4.692;2023-03-22T07:36:58;3.50;3.50;1.00
12246;PMS7003;6186;52.022;4.692;2023-03-22T07:39:23;2.75;2.75;1.00
12246;PMS7003;6186;52.022;4.692;2023-03-22T07:41:52;4.20;3.00;1.00
12246;PMS7003;6186;52.022;4.692;2023-03-22T07:44:18;2.00;2.00;0.00
12246;PMS7003;6186;52.022;4.692;2023-03-22T07:46:43;3.00;3.00;1.00
12246;PMS7003;6186;52.022;4.692;2023-03-22T07:49:08;3.00;2.00;0.00
12246;PMS7003;6186;52.022;4.692;2023-03-22T07:51:34;3.25;3.00;1.00
12246;PMS7003;6186;52.022;4.692;2023-03-22T07:54:00;2.50;2.50;1.00
12246;PMS7003;6186;52.022;4.692;2023-03-22T07:56:25;3.40;3.00;1.00
12246;PMS7003;6186;52.022;4.692;2023-03-22T07:58:51;2.25;2.25;1.00
12246;PMS7003;6186;52.022;4.692;2023-03-22T08:01:16;3.00;3.00;1.00
12246;PMS7003;6186;52.022;4.692;2023-03-22T08:03:42;3.00;3.00;1.00
12246;PMS7003;6186;52.022;4.692;2023-03-22T08:06:07;5.25;3.00;0.75
12246;PMS7003;6186;52.022;4.692;2023-03-22T08:08:36;2.00;2.00;0.75
12246;PMS7003;6186;52.022;4.692;2023-03-22T08:11:02;2.20;2.00;0.40
12246;PMS7003;6186;52.022;4.692;2023-03-22T08:13:28;4.60;3.40;1.00
12246;PMS7003;6186;52.022;4.692;2023-03-22T08:15:53;3.25;3.25;1.25
12246;PMS7003;6186;52.022;4.692;2023-03-22T08:18:19;3.00;3.00;1.00
12246;PMS7003;6186;52.022;4.692;2023-03-22T08:20:44;2.75;2.75;1.00
12246;PMS7003;6186;52.022;4.692;2023-03-22T08:23:10;3.00;3.00;1.00
12246;PMS7003;6186;52.022;4.692;2023-03-22T08:25:40;3.00;3.00;1.00
12246;PMS7003;6186;52.022;4.692;2023-03-22T08:28:07;4.00;3.00;1.00
12246;PMS7003;6186;52.022;4.692;2023-03-22T08:30:32;6.00;4.80;1.00
12246;PMS7003;6186;52.022;4.692;2023-03-22T08:32:58;5.00;3.00;1.00
12246;PMS7003;6186;52.022;4.692;2023-03-22T08:35:23;2.00;2.00;0.25
12246;PMS7003;6186;52.022;4.692;2023-03-22T08:37:52;4.00;3.50;1.50
12246;PMS7003;6186;52.022;4.692;2023-03-22T08:40:18;3.00;3.00;1.00
12246;PMS7003;6186;52.022;4.692;2023-03-22T08:42:43;3.00;3.00;1.00
12246;PMS7003;6186;52.022;4.692;2023-03-22T08:45:08;3.00;3.00;1.00
12246;PMS7003;6186;52.022;4.692;2023-03-22T08:47:34;3.00;3.00;1.00
12246;PMS7003;6186;52.022;4.692;2023-03-22T08:50:00;4.00;3.00;1.00
12246;PMS7003;6186;52.022;4.692;2023-03-22T08:52:25;3.00;3.00;1.00
12246;PMS7003;6186;52.022;4.692;2023-03-22T08:54:50;2.75;2.75;0.75
12246;PMS7003;6186;52.022;4.692;2023-03-22T08:57:17;2.40;2.40;1.00
12246;PMS7003;6186;52.022;4.692;2023-03-22T08:59:45;4.00;3.00;1.00
12246;PMS7003;6186;52.022;4.692;2023-03-22T09:02:10;3.00;3.00;1.00
12246;PMS7003;6186;52.022;4.692;2023-03-22T09:04:36;4.50;3.50;1.00
12246;PMS7003;6186;52.022;4.692;2023-03-22T09:07:01;4.00;3.00;1.00
12246;PMS7003;6186;52.022;4.692;2023-03-22T09:09:27;3.00;3.00;1.00
12246;PMS7003;6186;52.022;4.692;2023-03-22T09:11:52;3.00;3.00;1.00
12246;PMS7003;6186;52.022;4.692;2023-03-22T09:14:17;3.25;2.75;1.00
12246;PMS7003;6186;52.022;4.692;2023-03-22T09:16:43;2.75;2.75;1.00
12246;PMS7003;6186;52.022;4.692;2023-03-22T09:19:09;3.00;3.00;1.00
12246;PMS7003;6186;52.022;4.692;2023-03-22T09:21:34;6.25;4.00;1.00
12246;PMS7003;6186;52.022;4.692;2023-03-22T09:24:00;3.25;3.00;1.00
12246;PMS7003;6186;52.022;4.692;2023-03-22T09:26:25;4.00;4.00;1.00
12246;PMS7003;6186;52.022;4.692;2023-03-22T09:28:51;3.00;3.00;1.00
12246;PMS7003;6186;52.022;4.692;2023-03-22T09:31:17;4.50;4.25;2.00
12246;PMS7003;6186;52.022;4.692;2023-03-22T09:33:42;3.00;3.00;1.00
12246;PMS7003;6186;52.022;4.692;2023-03-22T09:36:08;3.00;3.00;1.00
12246;PMS7003;6186;52.022;4.692;2023-03-22T09:38:36;3.00;3.00;1.00
12246;PMS7003;6186;52.022;4.692;2023-03-22T09:43:43;4.00;4.00;1.80
12246;PMS7003;6186;52.022;4.692;2023-03-22T09:46:13;3.60;3.60;1.00
12246;PMS7003;6186;52.022;4.692;2023-03-22T09:48:42;3.80;3.40;1.00
12246;PMS7003;6186;52.022;4.692;2023-03-22T09:54:09;5.20;2.60;1.00
12246;PMS7003;6186;52.022;4.692;2023-03-22T09:56:39;3.20;3.00;1.20
12246;PMS7003;6186;52.022;4.692;2023-03-22T09:59:07;4.60;3.80;1.00
12246;PMS7003;6186;52.022;4.692;2023-03-22T10:01:50;4.20;3.00;1.00
12246;PMS7003;6186;52.022;4.692;2023-03-22T10:04:37;3.00;3.00;1.00
12246;PMS7003;6186;52.022;4.692;2023-03-22T10:07:17;3.00;3.00;1.00
12246;PMS7003;6186;52.022;4.692;2023-03-22T10:17:41;3.00;3.00;1.00
12246;PMS7003;6186;52.022;4.692;2023-03-22T10:20:18;4.00;3.00;1.00
12246;PMS7003;6186;52.022;4.692;2023-03-22T10:22:51;4.40;2.60;0.60
12246;PMS7003;6186;52.022;4.692;2023-03-22T10:25:20;3.40;3.00;1.00
12246;PMS7003;6186;52.022;4.692;2023-03-22T10:27:56;3.00;3.00;1.00
12246;PMS7003;6186;52.022;4.692;2023-03-22T10:30:25;2.60;2.60;1.00
12246;PMS7003;6186;52.022;4.692;2023-03-22T10:32:55;3.00;3.00;1.00
12246;PMS7003;6186;52.022;4.692;2023-03-22T10:35:26;4.00;3.60;1.00
12246;PMS7003;6186;52.022;4.692;2023-03-22T10:37:53;2.60;2.40;1.00
12246;PMS7003;6186;52.022;4.692;2023-03-22T10:40:24;3.40;3.40;1.20
12246;PMS7003;6186;52.022;4.692;2023-03-22T10:42:56;5.00;3.00;1.00
12246;PMS7003;6186;52.022;4.692;2023-03-22T10:45:43;3.00;2.60;1.00
12246;PMS7003;6186;52.022;4.692;2023-03-22T10:48:21;3.80;3.00;1.00
12246;PMS7003;6186;52.022;4.692;2023-03-22T10:50:52;2.40;2.40;1.00
12246;PMS7003;6186;52.022;4.692;2023-03-22T10:53:27;4.20;3.20;1.00
12246;PMS7003;6186;52.022;4.692;2023-03-22T10:55:58;3.00;3.00;1.00
12246;PMS7003;6186;52.022;4.692;2023-03-22T10:58:31;3.00;2.25;1.00
12246;PMS7003;6186;52.022;4.692;2023-03-22T11:01:03;5.00;3.00;1.00
12246;PMS7003;6186;52.022;4.692;2023-03-22T11:03:36;3.00;2.80;0.80
12246;PMS7003;6186;52.022;4.692;2023-03-22T11:06:10;3.80;3.00;1.00
12246;PMS7003;6186;52.022;4.692;2023-03-22T11:08:42;3.20;3.00;1.00
12246;PMS7003;6186;52.022;4.692;2023-03-22T11:11:16;2.80;2.60;1.00
12246;PMS7003;6186;52.022;4.692;2023-03-22T11:13:59;3.20;3.20;1.00
12246;PMS7003;6186;52.022;4.692;2023-03-22T11:16:39;4.00;3.80;1.80
12246;PMS7003;6186;52.022;4.692;2023-03-22T11:19:27;4.40;4.00;1.00
12246;PMS7003;6186;52.022;4.692;2023-03-22T11:21:58;3.00;2.80;0.80
12246;PMS7003;6186;52.022;4.692;2023-03-22T11:24:28;4.00;4.00;1.00
12246;PMS7003;6186;52.022;4.692;2023-03-22T11:27:06;5.60;4.00;1.00
12246;PMS7003;6186;52.022;4.692;2023-03-22T11:30:16;5.00;4.00;2.00
12246;PMS7003;6186;52.022;4.692;2023-03-22T11:32:46;3.00;3.00;1.00
12246;PMS7003;6186;52.022;4.692;2023-03-22T11:37:50;5.00;4.00;2.00
12246;PMS7003;6186;52.022;4.692;2023-03-22T11:40:19;4.00;3.60;1.00
12246;PMS7003;6186;52.022;4.692;2023-03-22T11:42:48;4.00;4.00;2.00
12246;PMS7003;6186;52.022;4.692;2023-03-22T11:45:25;4.00;3.00;1.00
12246;PMS7003;6186;52.022;4.692;2023-03-22T11:47:53;3.20;3.20;1.60
12246;PMS7003;6186;52.022;4.692;2023-03-22T11:52:50;3.25;3.25;1.25
12246;PMS7003;6186;52.022;4.692;2023-03-22T11:55:17;4.40;4.40;2.00
12246;PMS7003;6186;52.022;4.692;2023-03-22T11:57:43;4.00;3.00;1.00
12246;PMS7003;6186;52.022;4.692;2023-03-22T12:00:17;5.00;4.20;1.60
12246;PMS7003;6186;52.022;4.692;2023-03-22T12:02:56;5.00;4.20;2.00
12246;PMS7003;6186;52.022;4.692;2023-03-22T12:05:28;4.60;4.60;2.00
12246;PMS7003;6186;52.022;4.692;2023-03-22T12:10:43;4.60;4.60;2.00
12246;PMS7003;6186;52.022;4.692;2023-03-22T12:13:19;4.00;4.00;2.00
12246;PMS7003;6186;52.022;4.692;2023-03-22T12:15:51;5.40;5.00;2.00
12246;PMS7003;6186;52.022;4.692;2023-03-22T12:18:25;4.60;4.40;2.00
12246;PMS7003;6186;52.022;4.692;2023-03-22T12:23:21;4.00;4.00;2.00
12246;PMS7003;6186;52.022;4.692;2023-03-22T12:31:39;5.40;5.40;2.80
12246;PMS7003;6186;52.022;4.692;2023-03-22T12:34:16;4.20;4.00;2.00
12246;PMS7003;6186;52.022;4.692;2023-03-22T12:36:51;5.00;4.60;2.00
12246;PMS7003;6186;52.022;4.692;2023-03-22T12:39:24;3.00;3.00;2.00
12246;PMS7003;6186;52.022;4.692;2023-03-22T12:41:54;5.00;5.00;2.00
12246;PMS7003;6186;52.022;4.692;2023-03-22T12:44:25;5.80;4.80;2.40
12246;PMS7003;6186;52.022;4.692;2023-03-22T12:47:00;4.20;3.60;1.00
12246;PMS7003;6186;52.022;4.692;2023-03-22T12:49:40;5.00;4.40;2.00
12246;PMS7003;6186;52.022;4.692;2023-03-22T12:52:14;3.80;3.20;1.40
12246;PMS7003;6186;52.022;4.692;2023-03-22T12:54:45;3.20;3.20;2.00
12246;PMS7003;6186;52.022;4.692;2023-03-22T12:57:13;4.00;4.00;2.00
12246;PMS7003;6186;52.022;4.692;2023-03-22T12:59:41;4.20;4.00;2.00
12246;PMS7003;6186;52.022;4.692;2023-03-22T13:07:12;5.00;4.75;2.00
12246;PMS7003;6186;52.022;4.692;2023-03-22T13:20:00;4.80;4.00;2.00
12246;PMS7003;6186;52.022;4.692;2023-03-22T13:27:55;5.00;4.40;2.00
12246;PMS7003;6186;52.022;4.692;2023-03-22T13:30:31;3.60;3.60;1.20
12246;PMS7003;6186;52.022;4.692;2023-03-22T13:38:07;4.40;4.00;2.00
12246;PMS7003;6186;52.022;4.692;2023-03-22T13:40:44;5.00;4.00;2.00
12246;PMS7003;6186;52.022;4.692;2023-03-22T13:48:41;4.40;4.00;2.00
12246;PMS7003;6186;52.022;4.692;2023-03-22T13:54:31;4.80;4.80;2.00
12246;PMS7003;6186;52.022;4.692;2023-03-22T14:02:14;5.60;5.60;2.80
12246;PMS7003;6186;52.022;4.692;2023-03-22T14:04:49;4.60;4.60;2.00
12246;PMS7003;6186;52.022;4.692;2023-03-22T14:07:22;5.00;5.00;2.80
12246;PMS7003;6186;52.022;4.692;2023-03-22T14:10:01;9.60;8.00;3.20
12246;PMS7003;6186;52.022;4.692;2023-03-22T14:15:45;5.80;5.80;3.20
12246;PMS7003;6186;52.022;4.692;2023-03-22T14:20:47;7.80;7.80;4.00
12246;PMS7003;6186;52.022;4.692;2023-03-22T14:23:19;7.80;7.40;3.00
12246;PMS7003;6186;52.022;4.692;2023-03-22T14:25:49;8.00;6.00;3.00
12246;PMS7003;6186;52.022;4.692;2023-03-22T14:28:18;6.40;5.20;3.00
12246;PMS7003;6186;52.022;4.692;2023-03-22T14:30:46;8.00;7.60;3.20
12246;PMS7003;6186;52.022;4.692;2023-03-22T14:33:16;8.00;6.80;3.00
12246;PMS7003;6186;52.022;4.692;2023-03-22T14:35:46;8.00;8.00;3.80
12246;PMS7003;6186;52.022;4.692;2023-03-22T14:38:15;5.60;5.60;2.60
12246;PMS7003;6186;52.022;4.692;2023-03-22T14:40:44;9.00;8.00;3.60
12246;PMS7003;6186;52.022;4.692;2023-03-22T14:45:44;9.00;8.00;3.00
12246;PMS7003;6186;52.022;4.692;2023-03-22T14:48:18;5.60;5.00;3.00
12246;PMS7003;6186;52.022;4.692;2023-03-22T14:50:48;6.40;6.20;2.60
12246;PMS7003;6186;52.022;4.692;2023-03-22T14:53:17;6.20;6.20;3.00
12246;PMS7003;6186;52.022;4.692;2023-03-22T14:55:48;5.20;4.20;2.20
12246;PMS7003;6186;52.022;4.692;2023-03-22T14:58:15;7.40;6.40;3.00
12246;PMS7003;6186;52.022;4.692;2023-03-22T15:00:43;4.80;4.80;2.00
12246;PMS7003;6186;52.022;4.692;2023-03-22T15:05:47;6.00;6.00;3.20
12246;PMS7003;6186;52.022;4.692;2023-03-22T15:10:40;6.00;6.00;3.00
12246;PMS7003;6186;52.022;4.692;2023-03-22T15:13:07;6.60;6.00;3.00
12246;PMS7003;6186;52.022;4.692;2023-03-22T15:15:36;6.20;5.40;3.00
12246;PMS7003;6186;52.022;4.692;2023-03-22T15:18:05;6.20;5.20;2.80
12246;PMS7003;6186;52.022;4.692;2023-03-22T15:20:33;6.20;5.60;2.80
12246;PMS7003;6186;52.022;4.692;2023-03-22T15:23:16;6.80;6.20;3.00
12246;PMS7003;6186;52.022;4.692;2023-03-22T15:25:51;7.20;7.00;3.00
12246;PMS7003;6186;52.022;4.692;2023-03-22T15:28:25;7.20;6.40;3.00
12246;PMS7003;6186;52.022;4.692;2023-03-22T15:30:53;8.00;7.20;3.00
12246;PMS7003;6186;52.022;4.692;2023-03-22T15:33:36;7.40;6.20;3.00
12246;PMS7003;6186;52.022;4.692;2023-03-22T15:36:03;9.20;6.40;3.00
12246;PMS7003;6186;52.022;4.692;2023-03-22T15:38:31;6.20;6.20;3.00
12246;PMS7003;6186;52.022;4.692;2023-03-22T15:41:01;7.40;5.80;3.20
12246;PMS7003;6186;52.022;4.692;2023-03-22T15:43:32;7.60;5.80;3.40
12246;PMS7003;6186;52.022;4.692;2023-03-22T15:51:45;8.00;6.20;2.80
12246;PMS7003;6186;52.022;4.692;2023-03-22T15:54:12;7.40;6.60;3.00
12246;PMS7003;6186;52.022;4.692;2023-03-22T15:56:54;6.00;6.00;2.60
12246;PMS7003;6186;52.022;4.692;2023-03-22T16:01:56;6.80;5.60;3.00
12246;PMS7003;6186;52.022;4.692;2023-03-22T16:04:29;5.80;5.00;2.00
12246;PMS7003;6186;52.022;4.692;2023-03-22T16:06:57;5.00;5.00;3.00
12246;PMS7003;6186;52.022;4.692;2023-03-22T16:09:22;6.00;5.00;2.25
12246;PMS7003;6186;52.022;4.692;2023-03-22T16:11:47;5.00;5.00;3.00
12246;PMS7003;6186;52.022;4.692;2023-03-22T16:14:13;5.00;5.00;3.00
12246;PMS7003;6186;52.022;4.692;2023-03-22T16:16:41;4.60;4.60;2.00
12246;PMS7003;6186;52.022;4.692;2023-03-22T16:19:08;8.60;6.40;3.00
12246;PMS7003;6186;52.022;4.692;2023-03-22T16:21:34;4.00;4.00;2.00
12246;PMS7003;6186;52.022;4.692;2023-03-22T16:24:00;4.50;4.25;2.00
12246;PMS7003;6186;52.022;4.692;2023-03-22T16:26:27;4.80;4.60;2.00
12246;PMS7003;6186;52.022;4.692;2023-03-22T16:28:53;4.60;4.60;2.00
12246;PMS7003;6186;52.022;4.692;2023-03-22T16:31:19;4.50;4.25;2.75
12246;PMS7003;6186;52.022;4.692;2023-03-22T16:33:45;5.00;5.00;2.00
12246;PMS7003;6186;52.022;4.692;2023-03-22T16:36:12;5.00;5.00;3.00
12246;PMS7003;6186;52.022;4.692;2023-03-22T16:38:39;5.00;5.00;2.40
12246;PMS7003;6186;52.022;4.692;2023-03-22T16:41:05;6.00;4.60;2.00
12246;PMS7003;6186;52.022;4.692;2023-03-22T16:43:35;5.20;5.20;2.40
12246;PMS7003;6186;52.022;4.692;2023-03-22T16:46:01;5.75;5.25;3.00
12246;PMS7003;6186;52.022;4.692;2023-03-22T16:48:26;5.25;5.25;3.00
12246;PMS7003;6186;52.022;4.692;2023-03-22T16:50:52;7.50;5.00;3.00
12246;PMS7003;6186;52.022;4.692;2023-03-22T16:53:18;4.00;4.00;2.40
12246;PMS7003;6186;52.022;4.692;2023-03-22T16:55:44;8.20;6.40;3.00
12246;PMS7003;6186;52.022;4.692;2023-03-22T16:58:11;5.60;5.60;2.20